Time;durP1;ratioP1;P1;durP2;ratioP2;P2;SDS_P1;SDS_P2;PMS_P1;PMS_P2;Temp;Humidity;BMP_temperature;BMP_pressure;BME280_temperature;BME280_humidity;BME280_pressure;Samples;Min_cycle;Max_cycle;Signal;HPM_P1;HPM_P2
2022/01/14 00:02:19;;;;;;;26.48;14.13;;;-3.00;98.00;;;;;;5010443;28;20030;-68
2022/01/14 00:04:47;;;;;;;26.52;14.40;;;-3.00;98.00;;;;;;5019006;28;20030;-67
2022/01/14 00:07:13;;;;;;;23.58;13.43;;;-3.00;98.00;;;;;;5016422;28;20028;-67
2022/01/14 00:09:39;;;;;;;25.77;13.65;;;-3.00;98.00;;;;;;5029879;28;20033;-67
2022/01/14 00:12:18;;;;;;;26.88;14.75;;;-2.90;98.00;;;;;;5025062;28;20724;-67
2022/01/14 00:14:57;;;;;;;25.88;13.57;;;-2.80;98.00;;;;;;5029188;28;20029;-68
2022/01/14 00:17:23;;;;;;;30.02;15.25;;;-2.80;98.00;;;;;;5034905;28;20087;-67
2022/01/14 00:19:50;;;;;;;47.53;24.92;;;-2.90;98.00;;;;;;5008809;28;20030;-68
2022/01/14 00:22:17;;;;;;;30.08;16.15;;;-3.00;98.00;;;;;;5025051;28;20057;-67
2022/01/14 00:33:10;;;;;;;19.38;10.13;;;-3.20;98.00;;;;;;5034334;28;20328;-68
2022/01/14 00:35:40;;;;;;;16.55;9.10;;;-3.20;98.00;;;;;;5033454;28;20087;-69
2022/01/14 00:38:07;;;;;;;16.42;8.43;;;-3.10;98.00;;;;;;5036642;28;20029;-69
2022/01/14 00:40:34;;;;;;;16.42;8.63;;;-3.00;98.00;;;;;;5035969;28;20029;-69
2022/01/14 00:43:00;;;;;;;15.95;8.50;;;-2.90;98.00;;;;;;5038221;28;20037;-69
2022/01/14 00:45:26;;;;;;;13.45;6.88;;;-2.90;98.00;;;;;;5019276;28;20038;-69
2022/01/14 00:47:55;;;;;;;12.95;7.07;;;-2.90;98.00;;;;;;5034628;28;20029;-69
2022/01/14 00:50:21;;;;;;;9.48;5.07;;;-3.00;98.00;;;;;;5036629;28;20029;-68
2022/01/14 00:52:49;;;;;;;8.30;4.82;;;-3.00;98.00;;;;;;5032473;28;20037;-69
2022/01/14 00:55:26;;;;;;;9.10;4.75;;;-2.90;98.00;;;;;;5028904;28;20156;-69
2022/01/14 01:00:25;;;;;;;8.00;4.75;;;-2.80;98.00;;;;;;5030030;28;20430;-69
2022/01/14 01:02:51;;;;;;;9.57;4.63;;;-2.80;98.00;;;;;;5032858;28;20029;-69
2022/01/14 01:05:19;;;;;;;7.75;4.00;;;-2.80;98.00;;;;;;5037325;28;20033;-68
2022/01/14 01:08:02;;;;;;;8.32;3.95;;;-2.80;98.00;;;;;;5034629;28;20052;-68
2022/01/14 01:10:29;;;;;;;9.32;4.70;;;-2.80;98.00;;;;;;5029686;28;20076;-68
2022/01/14 01:13:01;;;;;;;7.53;4.00;;;-2.80;98.00;;;;;;5035558;28;20078;-68
2022/01/14 01:15:27;;;;;;;9.10;4.88;;;-2.80;98.00;;;;;;5037837;28;20335;-68
2022/01/14 01:17:53;;;;;;;7.63;3.97;;;-2.90;98.00;;;;;;5034357;28;20030;-68
2022/01/14 01:20:21;;;;;;;6.50;3.83;;;-2.70;98.00;;;;;;5036151;28;20026;-68
2022/01/14 01:22:52;;;;;;;7.10;3.55;;;-2.60;98.00;;;;;;4999407;28;20042;-69
2022/01/14 01:25:24;;;;;;;5.65;2.85;;;-2.50;98.00;;;;;;5016598;28;20377;-68
2022/01/14 01:27:55;;;;;;;5.07;2.65;;;-2.40;98.00;;;;;;5019982;28;20099;-68
2022/01/14 01:33:03;;;;;;;4.88;2.40;;;-2.60;98.00;;;;;;5017380;28;20026;-68
2022/01/14 01:35:29;;;;;;;4.47;2.17;;;-2.60;98.00;;;;;;5017243;28;20104;-68
2022/01/14 01:37:55;;;;;;;5.03;2.15;;;-2.70;98.00;;;;;;5013940;28;20034;-69
2022/01/14 01:40:22;;;;;;;4.28;1.83;;;-2.70;98.00;;;;;;5013560;28;20056;-68
2022/01/14 01:42:50;;;;;;;5.68;2.38;;;-2.60;98.00;;;;;;5016415;28;20034;-68
2022/01/14 01:45:22;;;;;;;4.88;1.90;;;-2.60;98.00;;;;;;5017184;28;20014;-68
2022/01/14 01:47:50;;;;;;;4.05;2.03;;;-2.50;98.00;;;;;;5015970;28;20024;-66
2022/01/14 01:50:27;;;;;;;3.03;1.45;;;-2.50;98.00;;;;;;5015378;28;20111;-67
2022/01/14 01:52:54;;;;;;;6.03;2.53;;;-2.60;98.00;;;;;;5014808;28;20112;-66
2022/01/14 01:55:21;;;;;;;5.00;2.33;;;-2.70;98.00;;;;;;5016844;28;20040;-67
2022/01/14 01:57:48;;;;;;;4.57;2.28;;;-2.90;98.00;;;;;;5017367;28;20329;-66
2022/01/14 02:00:17;;;;;;;6.25;2.45;;;-3.00;98.00;;;;;;5017016;28;20057;-68
2022/01/14 02:02:46;;;;;;;6.93;2.72;;;-3.00;98.00;;;;;;5010384;28;20030;-68
2022/01/14 02:05:12;;;;;;;5.53;2.92;;;-2.90;98.00;;;;;;5008411;28;20026;-68
2022/01/14 02:07:39;;;;;;;6.97;2.90;;;-2.80;98.00;;;;;;5016313;28;20029;-68
2022/01/14 02:10:05;;;;;;;7.65;3.67;;;-2.70;98.00;;;;;;5016139;28;20036;-67
2022/01/14 02:12:37;;;;;;;8.52;4.00;;;-2.70;98.00;;;;;;5008716;28;20040;-68
2022/01/14 02:15:12;;;;;;;9.05;3.70;;;-2.60;98.00;;;;;;5015982;28;20022;-69
2022/01/14 02:23:04;;;;;;;5.03;2.40;;;-2.40;98.00;;;;;;5019005;28;20103;-66
2022/01/14 02:25:31;;;;;;;6.13;2.38;;;-2.50;98.00;;;;;;5024743;28;20025;-67
2022/01/14 02:27:58;;;;;;;7.13;2.65;;;-2.50;98.00;;;;;;5031566;28;20029;-68
2022/01/14 02:30:25;;;;;;;7.60;2.53;;;-2.40;98.00;;;;;;5004492;28;20029;-68
2022/01/14 02:32:51;;;;;;;6.63;2.53;;;-2.50;98.00;;;;;;5021054;28;20040;-68
2022/01/14 02:35:18;;;;;;;5.32;1.98;;;-2.50;98.00;;;;;;5033360;28;20315;-68
2022/01/14 02:37:46;;;;;;;6.05;2.70;;;-2.50;98.00;;;;;;5036165;28;20030;-68
2022/01/14 02:40:12;;;;;;;7.85;2.95;;;-2.60;98.00;;;;;;5030780;28;20033;-68
2022/01/14 02:42:38;;;;;;;7.50;2.65;;;-2.70;98.00;;;;;;5035955;28;20037;-68
2022/01/14 02:45:10;;;;;;;5.70;2.42;;;-2.60;98.00;;;;;;5036540;28;20033;-68
2022/01/14 02:47:35;;;;;;;6.05;2.38;;;-2.60;98.00;;;;;;5034368;28;20030;-67
2022/01/14 02:50:01;;;;;;;5.93;2.95;;;-2.60;98.00;;;;;;5036547;28;20078;-67
2022/01/14 02:52:42;;;;;;;4.45;2.50;;;-2.40;98.00;;;;;;5036144;28;20172;-67
2022/01/14 02:55:16;;;;;;;6.03;2.03;;;-2.30;98.00;;;;;;5036255;28;20082;-68
2022/01/14 02:57:48;;;;;;;4.47;2.00;;;-2.30;98.00;;;;;;5036036;28;20025;-67
2022/01/14 03:00:16;;;;;;;5.55;2.25;;;-2.40;98.00;;;;;;5034724;28;20112;-68
2022/01/14 03:02:46;;;;;;;6.15;2.58;;;-2.50;98.00;;;;;;5034586;28;20032;-68
2022/01/14 03:05:13;;;;;;;6.10;2.53;;;-2.50;98.00;;;;;;5034390;28;20030;-68
2022/01/14 03:07:40;;;;;;;6.35;3.00;;;-2.30;98.00;;;;;;5035248;28;20034;-67
2022/01/14 03:10:07;;;;;;;10.02;3.53;;;-2.30;98.00;;;;;;5034738;28;20059;-67
2022/01/14 03:12:33;;;;;;;8.02;2.97;;;-2.20;98.00;;;;;;5033731;28;20475;-68
2022/01/14 03:14:59;;;;;;;6.60;2.97;;;-2.30;98.00;;;;;;5035214;28;20108;-67
2022/01/14 03:17:24;;;;;;;7.15;3.50;;;-2.30;98.00;;;;;;5034671;28;20112;-68
2022/01/14 03:19:50;;;;;;;5.68;2.75;;;-2.30;98.00;;;;;;5017902;28;20141;-67
2022/01/14 03:22:36;;;;;;;7.72;3.00;;;-2.40;98.00;;;;;;5035282;28;20046;-68
2022/01/14 03:27:48;;;;;;;6.75;3.60;;;-2.60;98.00;;;;;;5035621;28;20032;-68
2022/01/14 03:30:14;;;;;;;9.55;4.07;;;-2.60;98.00;;;;;;5035219;28;20025;-68
2022/01/14 03:32:43;;;;;;;7.10;3.08;;;-2.60;98.00;;;;;;5034109;28;20334;-68
2022/01/14 03:35:10;;;;;;;6.88;3.22;;;-2.30;98.00;;;;;;5031676;28;20647;-68
2022/01/14 03:37:44;;;;;;;6.13;3.10;;;-2.30;98.00;;;;;;5029258;28;20334;-68
2022/01/14 03:40:10;;;;;;;5.65;2.25;;;-2.20;98.00;;;;;;5034177;28;20056;-68
2022/01/14 03:42:36;;;;;;;5.60;2.13;;;-2.20;98.00;;;;;;5016044;28;20076;-68
2022/01/14 03:45:05;;;;;;;4.30;1.92;;;-2.20;98.00;;;;;;5017968;28;20108;-68
2022/01/14 03:47:31;;;;;;;2.78;1.60;;;-2.20;98.00;;;;;;5034495;28;20379;-67
2022/01/14 03:49:56;;;;;;;4.13;1.90;;;-2.10;98.00;;;;;;5034710;28;20112;-68
2022/01/14 03:52:22;;;;;;;3.33;1.60;;;-2.20;98.00;;;;;;5034782;28;20022;-68
2022/01/14 03:54:48;;;;;;;3.13;1.63;;;-2.10;98.00;;;;;;5034899;28;20032;-68
2022/01/14 03:57:14;;;;;;;7.57;3.40;;;-2.20;98.00;;;;;;5035102;28;20018;-68
2022/01/14 03:59:40;;;;;;;5.30;2.53;;;-2.40;98.00;;;;;;5033944;28;20143;-68
2022/01/14 04:02:05;;;;;;;4.80;2.28;;;-2.60;98.00;;;;;;5033342;28;20430;-68
2022/01/14 04:04:31;;;;;;;4.18;1.80;;;-2.60;98.00;;;;;;5034751;28;20121;-69
2022/01/14 04:06:57;;;;;;;5.28;2.22;;;-2.50;98.00;;;;;;5017425;28;20060;-68
2022/01/14 04:09:22;;;;;;;3.50;1.90;;;-2.50;98.00;;;;;;5030904;28;20055;-68
2022/01/14 04:11:48;;;;;;;4.28;2.13;;;-2.60;98.00;;;;;;5032610;28;20071;-68
2022/01/14 04:16:52;;;;;;;6.45;3.67;;;-2.80;98.00;;;;;;5029967;28;20330;-69
2022/01/14 04:19:18;;;;;;;5.32;2.17;;;-2.90;98.00;;;;;;5033641;28;20458;-68
2022/01/14 04:21:44;;;;;;;4.25;1.80;;;-2.90;98.00;;;;;;5034573;28;20117;-68
2022/01/14 04:24:09;;;;;;;8.32;3.58;;;-2.80;98.00;;;;;;5034339;28;20090;-68
2022/01/14 04:26:35;;;;;;;5.60;3.17;;;-2.70;98.00;;;;;;5033517;28;20028;-69
2022/01/14 04:29:01;;;;;;;3.70;2.00;;;-2.60;98.00;;;;;;5034486;28;20072;-68
2022/01/14 04:31:27;;;;;;;3.53;1.67;;;-2.40;98.00;;;;;;5016882;28;20133;-69
2022/01/14 04:33:52;;;;;;;3.25;1.70;;;-2.30;98.00;;;;;;5033156;28;20045;-68
2022/01/14 04:36:18;;;;;;;3.55;2.28;;;-2.20;98.00;;;;;;5020363;28;20103;-67
2022/01/14 04:38:44;;;;;;;3.38;1.48;;;-2.20;98.00;;;;;;5030411;28;20025;-68
2022/01/14 04:41:10;;;;;;;21.42;10.50;;;-2.20;98.00;;;;;;5033642;28;20037;-68
2022/01/14 04:43:36;;;;;;;5.20;2.33;;;-2.10;98.00;;;;;;5034964;28;20038;-68
2022/01/14 04:48:36;;;;;;;4.38;2.20;;;-2.20;98.00;;;;;;5033133;28;20369;-67
2022/01/14 04:51:05;;;;;;;8.82;3.22;;;-2.20;98.00;;;;;;5034370;28;20024;-67
2022/01/14 04:53:34;;;;;;;22.88;9.05;;;-2.20;98.00;;;;;;5036253;28;20312;-67
2022/01/14 04:56:00;;;;;;;16.20;7.10;;;-2.20;98.00;;;;;;5036929;28;20030;-69
2022/01/14 04:58:27;;;;;;;13.68;6.22;;;-2.20;98.00;;;;;;5037981;28;20036;-70
2022/01/14 05:00:54;;;;;;;6.63;3.28;;;-2.20;98.00;;;;;;5037553;28;20025;-69
2022/01/14 05:03:24;;;;;;;4.93;2.33;;;-2.20;98.00;;;;;;5037024;28;20034;-69
2022/01/14 05:05:53;;;;;;;7.22;3.38;;;-2.20;98.00;;;;;;5037322;28;20114;-68
2022/01/14 05:08:23;;;;;;;17.88;10.73;;;-2.30;98.00;;;;;;5038209;28;20091;-68
2022/01/14 05:13:23;;;;;;;5.43;2.67;;;-2.30;98.00;;;;;;5038512;28;20116;-67
2022/01/14 05:15:52;;;;;;;13.23;6.07;;;-2.30;98.00;;;;;;5037705;28;20082;-67
2022/01/14 05:18:18;;;;;;;44.20;19.52;;;-2.30;98.00;;;;;;5033109;28;20029;-67
2022/01/14 05:20:43;;;;;;;32.60;15.07;;;-2.20;98.00;;;;;;5036548;28;20038;-68
2022/01/14 05:23:09;;;;;;;24.98;12.45;;;-2.00;98.00;;;;;;5036945;28;20046;-67
2022/01/14 05:25:35;;;;;;;23.52;13.02;;;-2.00;98.00;;;;;;5033666;28;20026;-68
2022/01/14 05:28:03;;;;;;;29.98;18.30;;;-2.00;98.00;;;;;;5019560;28;20155;-68
2022/01/14 05:30:31;;;;;;;16.67;10.40;;;-2.00;98.00;;;;;;5037050;28;20516;-68
2022/01/14 05:32:57;;;;;;;10.48;7.07;;;-1.80;98.00;;;;;;5031187;28;20052;-68
2022/01/14 05:35:28;;;;;;;8.07;5.10;;;-1.80;98.00;;;;;;5037225;28;20029;-67
2022/01/14 05:37:54;;;;;;;4.45;2.75;;;-1.90;98.00;;;;;;5037774;28;20057;-68
2022/01/14 05:40:21;;;;;;;3.65;2.20;;;-1.90;98.00;;;;;;5037131;28;20130;-68
2022/01/14 05:42:48;;;;;;;5.32;2.85;;;-1.90;98.00;;;;;;5036522;28;20052;-68
2022/01/14 05:45:16;;;;;;;5.80;3.83;;;-1.80;98.00;;;;;;5037342;28;20026;-68
2022/01/14 05:47:42;;;;;;;5.28;3.33;;;-1.90;98.00;;;;;;5035692;28;20072;-68
2022/01/14 05:50:11;;;;;;;3.88;2.60;;;-1.90;98.00;;;;;;5036972;28;20018;-68
2022/01/14 05:52:37;;;;;;;4.80;1.80;;;-1.90;97.60;;;;;;5036685;28;20091;-68
2022/01/14 05:55:03;;;;;;;1.85;1.38;;;-1.80;96.90;;;;;;5037344;28;20398;-68
2022/01/14 05:57:30;;;;;;;2.67;1.70;;;-1.80;97.10;;;;;;5033431;28;20022;-67
2022/01/14 05:59:56;;;;;;;3.10;1.80;;;-1.70;97.10;;;;;;5036606;28;20037;-68
2022/01/14 06:02:22;;;;;;;3.55;2.00;;;-1.60;97.00;;;;;;5035051;28;20037;-68
2022/01/14 06:04:47;;;;;;;3.10;1.80;;;-1.60;97.20;;;;;;5018400;28;20612;-68
2022/01/14 06:07:13;;;;;;;4.30;2.03;;;-1.70;97.30;;;;;;5036076;28;20516;-68
2022/01/14 06:09:39;;;;;;;2.70;1.70;;;-1.90;97.60;;;;;;5036945;28;20040;-68
2022/01/14 06:12:08;;;;;;;2.03;1.40;;;-1.90;98.00;;;;;;5036459;28;20028;-68
2022/01/14 06:14:33;;;;;;;2.10;1.30;;;-2.00;98.00;;;;;;5037323;28;20415;-69
2022/01/14 06:16:59;;;;;;;2.10;1.40;;;-2.20;98.00;;;;;;5017297;28;20041;-68
2022/01/14 06:19:27;;;;;;;1.30;1.13;;;-2.40;98.00;;;;;;5036790;28;20163;-68
2022/01/14 06:21:53;;;;;;;1.98;1.33;;;-2.60;98.00;;;;;;5018996;28;20045;-68
2022/01/14 06:24:19;;;;;;;2.08;1.27;;;-2.50;98.00;;;;;;5036241;28;20029;-68
2022/01/14 06:26:44;;;;;;;2.22;1.40;;;-2.40;98.00;;;;;;5036869;28;20441;-68
2022/01/14 06:29:10;;;;;;;2.90;1.80;;;-2.40;98.00;;;;;;5036502;28;20037;-67
2022/01/14 06:31:38;;;;;;;2.63;1.60;;;-2.20;98.00;;;;;;5035062;28;20048;-68
2022/01/14 06:34:07;;;;;;;2.08;1.30;;;-2.10;98.00;;;;;;5033977;28;20330;-68
2022/01/14 06:36:32;;;;;;;1.60;1.20;;;-2.00;98.00;;;;;;5018835;28;20124;-67
2022/01/14 06:38:58;;;;;;;3.13;1.50;;;-1.90;97.90;;;;;;5036403;28;20125;-67
2022/01/14 06:41:24;;;;;;;1.52;1.30;;;-1.90;97.10;;;;;;5034738;28;20033;-68
2022/01/14 06:43:52;;;;;;;1.83;1.25;;;-1.80;95.70;;;;;;5035453;28;20037;-68
2022/01/14 06:46:18;;;;;;;1.50;1.15;;;-1.70;94.50;;;;;;5035398;28;20622;-67
2022/01/14 06:48:43;;;;;;;2.63;1.80;;;-1.50;93.70;;;;;;5034917;28;20041;-68
2022/01/14 06:51:14;;;;;;;2.08;1.50;;;-1.60;93.70;;;;;;5036352;28;20072;-69
2022/01/14 06:53:41;;;;;;;4.18;2.28;;;-1.70;94.60;;;;;;5034603;28;20441;-68
2022/01/14 06:56:07;;;;;;;5.75;2.97;;;-1.90;95.70;;;;;;5035413;28;20026;-69
2022/01/14 06:58:32;;;;;;;5.00;2.60;;;-2.10;96.60;;;;;;5036223;28;20107;-69
2022/01/14 07:01:01;;;;;;;4.10;2.38;;;-2.30;97.60;;;;;;5034930;28;20566;-68
2022/01/14 07:03:29;;;;;;;3.40;1.88;;;-2.40;98.00;;;;;;5030832;28;20065;-68
2022/01/14 07:05:55;;;;;;;8.75;3.85;;;-2.60;98.00;;;;;;5031656;28;20032;-68
2022/01/14 07:08:20;;;;;;;15.63;7.30;;;-2.60;98.00;;;;;;5035243;28;20029;-69
2022/01/14 07:10:46;;;;;;;7.50;4.28;;;-2.50;98.00;;;;;;5035552;28;20030;-68
2022/01/14 07:13:12;;;;;;;7.40;4.22;;;-2.50;98.00;;;;;;5034650;28;20045;-68
2022/01/14 07:15:37;;;;;;;6.65;3.70;;;-2.40;98.00;;;;;;5035522;28;20375;-68
2022/01/14 07:18:03;;;;;;;7.97;4.20;;;-2.00;98.00;;;;;;5032746;28;20036;-69
2022/01/14 07:20:29;;;;;;;9.02;4.70;;;-1.60;98.00;;;;;;5029937;28;20046;-68
2022/01/14 07:22:57;;;;;;;7.70;3.97;;;-1.40;98.00;;;;;;5034223;28;20080;-69
2022/01/14 07:25:30;;;;;;;7.97;4.68;;;-1.40;98.00;;;;;;5035017;28;20029;-68
2022/01/14 07:27:57;;;;;;;8.52;4.88;;;-1.40;98.00;;;;;;5016532;28;20314;-69
2022/01/14 07:30:23;;;;;;;6.80;3.90;;;-1.50;98.00;;;;;;5035170;28;20039;-68
2022/01/14 07:32:49;;;;;;;6.85;4.10;;;-1.70;98.00;;;;;;5028877;28;20034;-68
2022/01/14 07:35:15;;;;;;;8.10;3.92;;;-1.80;98.00;;;;;;5034947;28;20422;-68
2022/01/14 07:37:41;;;;;;;7.05;3.90;;;-1.90;98.00;;;;;;5034521;28;20060;-68
2022/01/14 07:40:10;;;;;;;10.82;6.75;;;-1.90;98.00;;;;;;5035158;28;20060;-67
2022/01/14 07:42:36;;;;;;;11.13;6.95;;;-1.80;98.00;;;;;;5016761;28;20441;-67
2022/01/14 07:45:03;;;;;;;9.30;5.47;;;-1.70;98.00;;;;;;5034297;28;20025;-67
2022/01/14 07:47:29;;;;;;;11.52;5.40;;;-1.50;98.00;;;;;;5034055;28;20295;-67
2022/01/14 07:49:54;;;;;;;6.47;4.10;;;-1.40;98.00;;;;;;5032932;28;20109;-69
2022/01/14 07:52:20;;;;;;;8.40;4.88;;;-1.40;98.00;;;;;;5035336;28;20080;-68
2022/01/14 07:54:48;;;;;;;7.90;5.05;;;-1.40;98.00;;;;;;5034962;28;20033;-69
2022/01/14 07:57:15;;;;;;;7.68;4.35;;;-1.30;98.00;;;;;;5033904;28;20029;-68
2022/01/14 07:59:41;;;;;;;7.43;3.60;;;-1.30;98.00;;;;;;5033658;28;20314;-69
2022/01/14 08:02:12;;;;;;;8.88;5.78;;;-1.20;98.00;;;;;;5032107;28;20025;-68
2022/01/14 08:04:41;;;;;;;6.13;3.63;;;-1.20;98.00;;;;;;5030944;28;20126;-69
2022/01/14 08:07:11;;;;;;;3.72;2.10;;;-1.30;98.00;;;;;;5034318;28;20045;-67
2022/01/14 08:09:38;;;;;;;2.25;1.52;;;-1.30;98.00;;;;;;5029032;28;20326;-67
2022/01/14 08:12:05;;;;;;;3.15;1.77;;;-1.20;98.00;;;;;;5033982;28;20040;-68
2022/01/14 08:14:34;;;;;;;2.83;1.60;;;-1.00;98.00;;;;;;5027457;28;20025;-68
2022/01/14 08:17:00;;;;;;;5.25;2.58;;;-0.90;98.00;;;;;;5034414;28;20033;-68
2022/01/14 08:19:26;;;;;;;3.92;2.30;;;-0.80;98.00;;;;;;5035214;28;20029;-68
2022/01/14 08:21:52;;;;;;;3.45;1.98;;;-0.80;98.00;;;;;;5035175;28;20050;-68
2022/01/14 08:24:20;;;;;;;5.13;2.13;;;-0.70;98.00;;;;;;5034588;28;20026;-68
2022/01/14 08:26:46;;;;;;;3.67;2.25;;;-0.60;98.00;;;;;;5035245;28;20022;-67
2022/01/14 08:29:14;;;;;;;7.22;4.50;;;-0.50;98.00;;;;;;5038842;28;20021;-68
2022/01/14 08:31:40;;;;;;;5.07;2.72;;;-0.30;98.00;;;;;;5039048;28;20075;-68
2022/01/14 08:34:06;;;;;;;4.00;2.35;;;-0.10;98.00;;;;;;5038163;28;20034;-68
2022/01/14 08:36:31;;;;;;;4.53;2.58;;;0.40;97.80;;;;;;5039377;28;20130;-68
2022/01/14 08:38:59;;;;;;;5.07;2.75;;;1.30;96.40;;;;;;5039275;28;20029;-68
2022/01/14 08:41:29;;;;;;;4.53;2.40;;;2.40;91.20;;;;;;5039212;28;20027;-69
2022/01/14 08:43:57;;;;;;;3.88;2.15;;;3.00;87.60;;;;;;5038961;28;20064;-68
2022/01/14 08:46:23;;;;;;;4.13;2.15;;;3.20;87.20;;;;;;5038965;28;20037;-69
2022/01/14 08:48:50;;;;;;;4.35;1.92;;;3.50;87.30;;;;;;5036238;28;20500;-68
2022/01/14 08:51:17;;;;;;;4.05;1.83;;;4.20;86.80;;;;;;5039397;28;20096;-68
2022/01/14 08:53:42;;;;;;;19.63;12.10;;;5.70;84.90;;;;;;5038888;28;20037;-68
2022/01/14 08:56:08;;;;;;;10.73;5.75;;;7.40;80.00;;;;;;5038299;28;20128;-68
2022/01/14 08:58:34;;;;;;;13.23;8.85;;;8.80;76.70;;;;;;5039119;28;20033;-69
2022/01/14 09:00:59;;;;;;;23.40;15.00;;;10.00;72.30;;;;;;5038749;28;20043;-69
2022/01/14 09:03:25;;;;;;;24.33;15.25;;;10.40;70.40;;;;;;5037333;28;20112;-68
2022/01/14 09:05:51;;;;;;;28.33;15.55;;;11.60;68.70;;;;;;5038863;28;20109;-69
2022/01/14 09:08:16;;;;;;;22.50;13.05;;;12.30;65.30;;;;;;5038664;28;20029;-69
2022/01/14 09:10:42;;;;;;;16.23;8.50;;;13.10;64.10;;;;;;5038774;28;20079;-69
2022/01/14 09:13:07;;;;;;;10.88;5.07;;;13.40;63.90;;;;;;5038365;28;20026;-69
2022/01/14 09:15:33;;;;;;;5.18;2.40;;;14.10;63.10;;;;;;5038609;28;20104;-68
2022/01/14 09:17:59;;;;;;;2.55;1.25;;;14.90;61.80;;;;;;5036843;28;20029;-68
2022/01/14 09:20:25;;;;;;;2.90;1.30;;;14.30;59.80;;;;;;5038667;28;20151;-69
2022/01/14 09:22:56;;;;;;;7.53;2.80;;;13.30;62.60;;;;;;5038372;28;20183;-69
2022/01/14 09:25:21;;;;;;;6.47;3.10;;;13.10;63.00;;;;;;5037801;28;20019;-69
2022/01/14 09:27:49;;;;;;;7.63;3.55;;;13.50;62.90;;;;;;5037413;28;20036;-68
2022/01/14 09:30:15;;;;;;;6.13;2.28;;;14.40;61.00;;;;;;5037994;28;20064;-69
2022/01/14 09:32:41;;;;;;;5.55;2.15;;;15.10;59.50;;;;;;5037235;28;20418;-69
2022/01/14 09:35:08;;;;;;;5.97;2.05;;;15.70;57.90;;;;;;5038223;28;20033;-69
2022/01/14 09:37:35;;;;;;;3.80;1.50;;;15.80;57.20;;;;;;5037780;28;20076;-69
2022/01/14 09:40:01;;;;;;;3.13;1.20;;;14.70;57.00;;;;;;5036684;28;20064;-69
2022/01/14 09:42:27;;;;;;;2.75;1.10;;;14.40;59.80;;;;;;5037484;28;20053;-70
2022/01/14 09:44:53;;;;;;;2.30;0.90;;;14.20;58.30;;;;;;5038076;28;20026;-69
2022/01/14 09:47:20;;;;;;;2.50;1.00;;;13.50;60.50;;;;;;5036878;28;20028;-69
2022/01/14 09:49:47;;;;;;;3.20;1.23;;;13.30;61.10;;;;;;5038109;28;20017;-69
2022/01/14 09:52:13;;;;;;;3.20;1.33;;;12.70;61.60;;;;;;5037335;28;20026;-68
2022/01/14 09:54:43;;;;;;;5.68;2.63;;;12.90;61.70;;;;;;5037921;28;20033;-68
2022/01/14 09:57:11;;;;;;;4.30;1.95;;;13.70;58.40;;;;;;5037294;28;20453;-68
2022/01/14 09:59:38;;;;;;;4.80;2.30;;;14.10;58.10;;;;;;5037789;28;20033;-68
2022/01/14 10:02:04;;;;;;;3.65;1.67;;;14.80;55.40;;;;;;5036655;28;20029;-67
2022/01/14 10:04:33;;;;;;;4.15;1.80;;;15.00;55.30;;;;;;5037485;28;20036;-69
2022/01/14 10:07:10;;;;;;;4.55;2.10;;;14.20;55.60;;;;;;5037714;28;20018;-68
2022/01/14 10:09:42;;;;;;;7.93;4.18;;;13.50;58.30;;;;;;5037489;28;20049;-70
2022/01/14 10:12:20;;;;;;;11.52;7.75;;;13.50;60.10;;;;;;5036662;28;20112;-69
2022/01/14 10:14:58;;;;;;;13.05;8.73;;;13.10;59.70;;;;;;5037336;28;20322;-68
2022/01/14 10:17:25;;;;;;;15.98;10.30;;;12.70;60.60;;;;;;5036316;28;20414;-68
2022/01/14 10:19:54;;;;;;;13.60;9.05;;;12.50;60.70;;;;;;5036272;28;20033;-69
2022/01/14 10:22:26;;;;;;;15.35;9.57;;;12.50;60.80;;;;;;5036789;28;20371;-69
2022/01/14 10:25:03;;;;;;;16.33;10.18;;;12.30;61.10;;;;;;5036137;28;20033;-70
2022/01/14 10:27:50;;;;;;;14.90;8.98;;;12.10;61.60;;;;;;5036320;28;20147;-69
2022/01/14 10:30:33;;;;;;;13.40;8.30;;;12.00;62.50;;;;;;5036404;28;20060;-69
2022/01/14 10:33:09;;;;;;;13.25;8.10;;;11.70;62.80;;;;;;5033705;28;20057;-68
2022/01/14 10:35:41;;;;;;;14.52;8.60;;;11.70;63.40;;;;;;5036188;28;20105;-68
2022/01/14 10:38:16;;;;;;;15.57;9.10;;;11.60;64.10;;;;;;5036098;28;20091;-68
2022/01/14 10:40:47;;;;;;;15.90;9.50;;;11.80;63.80;;;;;;5036335;28;20072;-68
2022/01/14 10:43:16;;;;;;;11.73;8.05;;;11.90;63.40;;;;;;5035814;28;20028;-68
2022/01/14 10:45:45;;;;;;;9.18;5.18;;;11.30;63.90;;;;;;5036169;28;20087;-71
2022/01/14 10:48:28;;;;;;;6.78;3.55;;;11.60;63.00;;;;;;5034601;28;20026;-70
2022/01/14 10:51:08;;;;;;;4.57;1.50;;;12.20;59.70;;;;;;5034305;28;20036;-70
2022/01/14 10:53:39;;;;;;;5.63;2.50;;;13.20;55.90;;;;;;5016125;28;20112;-69
2022/01/14 10:56:15;;;;;;;3.72;1.77;;;13.40;55.00;;;;;;5028480;28;20088;-69
2022/01/14 10:58:50;;;;;;;3.80;1.63;;;13.80;54.80;;;;;;5028293;28;20079;-69
2022/01/14 11:01:21;;;;;;;3.63;1.63;;;13.90;55.00;;;;;;5032392;28;20025;-70
2022/01/14 11:03:52;;;;;;;3.92;1.65;;;13.30;55.50;;;;;;5034098;28;20401;-70
2022/01/14 11:06:23;;;;;;;3.17;1.40;;;13.10;55.50;;;;;;5035406;28;20029;-69
2022/01/14 11:09:02;;;;;;;2.40;1.10;;;13.30;55.40;;;;;;5033892;28;20040;-69
2022/01/14 11:11:30;;;;;;;2.25;0.98;;;13.10;54.70;;;;;;5032459;28;20029;-70
2022/01/14 11:14:00;;;;;;;2.10;1.00;;;13.00;56.00;;;;;;5033949;28;20373;-69
2022/01/14 11:16:26;;;;;;;2.42;0.90;;;12.80;55.30;;;;;;5013661;28;20061;-69
2022/01/14 11:18:56;;;;;;;2.60;1.10;;;12.30;56.60;;;;;;5032986;28;20083;-69
2022/01/14 11:24:12;;;;;;;2.65;1.30;;;12.20;57.70;;;;;;5073137;27;20395;-69
2022/01/14 11:26:40;;;;;;;3.78;1.45;;;12.10;58.00;;;;;;5070898;28;20025;-69
2022/01/14 11:29:10;;;;;;;3.83;1.27;;;11.80;57.90;;;;;;5069901;28;20100;-69
2022/01/14 11:31:37;;;;;;;3.97;1.20;;;11.70;58.30;;;;;;5069022;28;20317;-70
2022/01/14 11:34:29;;;;;;;3.22;1.40;;;11.50;57.90;;;;;;5071490;28;20025;-69
2022/01/14 11:37:00;;;;;;;4.32;1.50;;;11.70;57.10;;;;;;5073290;28;20317;-69
2022/01/14 11:39:28;;;;;;;3.17;1.35;;;11.50;57.50;;;;;;5072515;28;20020;-69
2022/01/14 11:41:59;;;;;;;2.83;1.15;;;11.00;58.20;;;;;;5055671;28;20033;-70
2022/01/14 11:44:53;;;;;;;3.55;1.40;;;10.80;59.20;;;;;;5055120;28;20532;-70
2022/01/14 11:47:25;;;;;;;6.37;1.90;;;11.00;58.00;;;;;;5060354;28;20375;-70
2022/01/14 11:49:56;;;;;;;2.05;1.08;;;10.90;58.70;;;;;;5065110;28;20075;-70
2022/01/14 11:52:40;;;;;;;2.20;1.02;;;11.00;59.20;;;;;;5071442;28;20110;-70
2022/01/14 11:55:25;;;;;;;3.25;1.20;;;11.10;59.30;;;;;;5070441;28;20146;-70
2022/01/14 11:57:58;;;;;;;2.85;1.20;;;11.30;58.50;;;;;;5071150;28;20318;-70
2022/01/14 12:03:06;;;;;;;3.67;1.50;;;11.40;58.80;;;;;;5067339;28;20033;-69
2022/01/14 12:05:33;;;;;;;3.50;1.30;;;11.50;59.80;;;;;;5071017;28;20021;-69
2022/01/14 12:08:05;;;;;;;3.03;1.13;;;12.00;58.90;;;;;;5072008;28;20425;-69
2022/01/14 12:10:45;;;;;;;2.88;1.17;;;12.80;58.80;;;;;;5069719;28;20017;-69
2022/01/14 12:13:40;;;;;;;3.53;1.58;;;12.60;57.40;;;;;;5070706;28;20314;-69
2022/01/14 12:16:36;;;;;;;6.10;1.70;;;12.00;58.70;;;;;;5064674;28;20170;-69
2022/01/14 12:19:02;;;;;;;4.07;1.90;;;11.60;59.50;;;;;;5069228;28;20060;-69
2022/01/14 12:21:37;;;;;;;18.85;11.35;;;11.60;59.40;;;;;;5076251;28;20035;-69
2022/01/14 12:24:27;;;;;;;7.30;4.18;;;11.70;59.20;;;;;;5074388;28;20043;-69
2022/01/14 12:26:55;;;;;;;2.25;0.90;;;11.70;58.40;;;;;;5065839;28;20067;-69
2022/01/14 12:29:37;;;;;;;3.35;1.20;;;11.90;58.10;;;;;;5071468;28;20029;-69
2022/01/14 12:32:05;;;;;;;9.35;3.75;;;11.80;59.00;;;;;;5070179;28;20032;-69
2022/01/14 12:34:35;;;;;;;3.80;1.83;;;11.30;60.30;;;;;;5060701;28;20440;-69
2022/01/14 12:37:02;;;;;;;3.33;1.52;;;11.10;60.60;;;;;;5043928;28;20083;-70
2022/01/14 12:39:28;;;;;;;4.15;1.60;;;11.20;61.20;;;;;;5073026;28;20481;-69
2022/01/14 12:41:56;;;;;;;3.30;1.50;;;11.10;61.70;;;;;;5065805;28;20094;-69
2022/01/14 12:44:23;;;;;;;2.53;1.20;;;11.40;62.40;;;;;;5058417;28;20100;-69
2022/01/14 12:47:07;;;;;;;3.17;1.40;;;11.40;61.50;;;;;;5056781;28;20029;-68
2022/01/14 12:49:38;;;;;;;3.97;1.40;;;11.30;61.60;;;;;;5058191;28;20040;-68
2022/01/14 12:52:16;;;;;;;5.13;1.30;;;11.20;63.60;;;;;;5057867;28;20037;-68
2022/01/14 12:54:46;;;;;;;3.03;1.20;;;11.40;62.00;;;;;;5044868;28;20547;-69
2022/01/14 12:57:19;;;;;;;3.33;1.40;;;11.70;64.20;;;;;;5058918;28;20031;-69
2022/01/14 12:59:47;;;;;;;2.17;1.10;;;11.50;63.50;;;;;;5066667;28;20417;-69
2022/01/14 13:02:22;;;;;;;3.20;1.30;;;11.50;64.10;;;;;;5059616;28;20091;-68
2022/01/14 13:05:03;;;;;;;6.63;1.40;;;11.60;64.60;;;;;;5057287;28;20017;-68
2022/01/14 13:07:30;;;;;;;3.30;1.20;;;11.50;64.50;;;;;;5057315;28;20425;-69
2022/01/14 13:09:56;;;;;;;2.65;1.20;;;11.70;64.70;;;;;;5056827;28;20032;-68
2022/01/14 13:12:26;;;;;;;3.22;1.40;;;11.60;64.60;;;;;;5042898;28;20040;-69
2022/01/14 13:14:57;;;;;;;2.55;1.10;;;11.80;64.00;;;;;;5037631;28;20428;-68
2022/01/14 13:17:53;;;;;;;3.65;1.20;;;11.60;64.00;;;;;;5038147;28;20034;-68
2022/01/14 13:20:20;;;;;;;2.83;1.20;;;11.50;64.70;;;;;;5038817;28;20041;-68
2022/01/14 13:22:50;;;;;;;2.65;1.30;;;11.40;65.30;;;;;;5045198;28;20094;-68
2022/01/14 13:25:21;;;;;;;3.45;1.45;;;11.40;65.60;;;;;;5051150;28;20026;-68
2022/01/14 13:27:53;;;;;;;4.10;1.58;;;11.30;66.10;;;;;;5042269;28;20049;-68
2022/01/14 13:30:41;;;;;;;3.28;1.42;;;11.30;66.40;;;;;;5038155;28;20026;-67